Terminal Aerodrome Forecast
Issued by NWS Greer, SC

Home | Current Version | Previous Version | Text Only | Print | Product List | Glossary On
Versions: 1 2 3 4 5 6 7 8 9 10 11 12 13 14 15 16 17 18 19 20 21 22 23 24 25 26 27 28 29 30 31 32 33 34 35 36 37 38 39 40 41 42 43 44 45 46 47 48 49 50
000
FTUS42 KGSP 280539
TAFAVL
TAF
KAVL 280539Z 2806/2906 00000KT 1/4SM FG OVC001
     FM281100 00000KT 1/2SM FG SCT001 OVC004
     FM281300 17003KT 4SM BR BKN015
     FM281600 17009G16KT P6SM BKN035
     FM290000 18005KT P6SM SCT040=

USA.gov is the U.S. government's official web portal to all federal, state and local government web resources and services.